sensor_id;sensor_type;location;lat;lon;timestamp;P1;durP1;ratioP1;P2;durP2;ratioP2
27847;SDS011;15212;48.830;8.730;2022-12-07T00:01:58;20.90;;;8.00;;
27847;SDS011;15212;48.830;8.730;2022-12-07T00:04:26;20.15;;;8.08;;
27847;SDS011;15212;48.830;8.730;2022-12-07T00:06:55;16.82;;;8.08;;
27847;SDS011;15212;48.830;8.730;2022-12-07T00:09:23;16.77;;;6.70;;
27847;SDS011;15212;48.830;8.730;2022-12-07T00:11:51;22.87;;;8.58;;
27847;SDS011;15212;48.830;8.730;2022-12-07T00:14:20;14.47;;;6.97;;
27847;SDS011;15212;48.830;8.730;2022-12-07T00:16:49;15.10;;;7.00;;
27847;SDS011;15212;48.830;8.730;2022-12-07T00:19:18;15.60;;;7.37;;
27847;SDS011;15212;48.830;8.730;2022-12-07T00:21:47;16.45;;;7.08;;
27847;SDS011;15212;48.830;8.730;2022-12-07T00:24:16;16.75;;;6.65;;
27847;SDS011;15212;48.830;8.730;2022-12-07T00:26:44;16.90;;;6.83;;
27847;SDS011;15212;48.830;8.730;2022-12-07T00:29:17;14.33;;;6.58;;
27847;SDS011;15212;48.830;8.730;2022-12-07T00:31:49;15.95;;;6.50;;
27847;SDS011;15212;48.830;8.730;2022-12-07T00:34:18;12.15;;;5.83;;
27847;SDS011;15212;48.830;8.730;2022-12-07T00:36:48;16.00;;;6.80;;
27847;SDS011;15212;48.830;8.730;2022-12-07T00:39:17;11.93;;;6.05;;
27847;SDS011;15212;48.830;8.730;2022-12-07T00:41:45;15.58;;;6.53;;
27847;SDS011;15212;48.830;8.730;2022-12-07T00:44:14;16.87;;;6.45;;
27847;SDS011;15212;48.830;8.730;2022-12-07T00:46:42;14.35;;;6.08;;
27847;SDS011;15212;48.830;8.730;2022-12-07T00:49:11;13.15;;;6.45;;
27847;SDS011;15212;48.830;8.730;2022-12-07T00:51:40;13.58;;;6.95;;
27847;SDS011;15212;48.830;8.730;2022-12-07T00:54:08;17.05;;;7.20;;
27847;SDS011;15212;48.830;8.730;2022-12-07T00:56:36;13.90;;;6.47;;
27847;SDS011;15212;48.830;8.730;2022-12-07T00:59:05;16.15;;;7.40;;
27847;SDS011;15212;48.830;8.730;2022-12-07T01:01:34;18.82;;;7.78;;
27847;SDS011;15212;48.830;8.730;2022-12-07T01:04:03;19.48;;;6.87;;
27847;SDS011;15212;48.830;8.730;2022-12-07T01:06:32;14.55;;;6.53;;
27847;SDS011;15212;48.830;8.730;2022-12-07T01:09:01;17.52;;;6.67;;
27847;SDS011;15212;48.830;8.730;2022-12-07T01:11:31;12.90;;;6.40;;
27847;SDS011;15212;48.830;8.730;2022-12-07T01:14:00;17.67;;;8.18;;
27847;SDS011;15212;48.830;8.730;2022-12-07T01:16:30;21.12;;;7.75;;
27847;SDS011;15212;48.830;8.730;2022-12-07T01:18:59;14.53;;;6.47;;
27847;SDS011;15212;48.830;8.730;2022-12-07T01:21:31;15.40;;;6.83;;
27847;SDS011;15212;48.830;8.730;2022-12-07T01:24:03;21.37;;;7.87;;
27847;SDS011;15212;48.830;8.730;2022-12-07T01:26:34;18.15;;;6.75;;
27847;SDS011;15212;48.830;8.730;2022-12-07T01:29:02;16.52;;;7.37;;
27847;SDS011;15212;48.830;8.730;2022-12-07T01:31:31;16.07;;;6.97;;
27847;SDS011;15212;48.830;8.730;2022-12-07T01:33:59;19.17;;;8.00;;
27847;SDS011;15212;48.830;8.730;2022-12-07T01:36:32;16.27;;;7.00;;
27847;SDS011;15212;48.830;8.730;2022-12-07T01:39:06;14.63;;;6.70;;
27847;SDS011;15212;48.830;8.730;2022-12-07T01:41:34;19.10;;;7.60;;
27847;SDS011;15212;48.830;8.730;2022-12-07T01:44:22;17.85;;;7.70;;
27847;SDS011;15212;48.830;8.730;2022-12-07T01:47:03;15.53;;;7.40;;
27847;SDS011;15212;48.830;8.730;2022-12-07T01:49:31;14.33;;;6.00;;
27847;SDS011;15212;48.830;8.730;2022-12-07T01:54:38;18.87;;;7.67;;
27847;SDS011;15212;48.830;8.730;2022-12-07T01:57:08;21.27;;;7.97;;
27847;SDS011;15212;48.830;8.730;2022-12-07T01:59:37;18.90;;;7.72;;
27847;SDS011;15212;48.830;8.730;2022-12-07T02:02:07;17.80;;;7.47;;
27847;SDS011;15212;48.830;8.730;2022-12-07T02:04:39;19.32;;;7.45;;
27847;SDS011;15212;48.830;8.730;2022-12-07T02:07:07;19.67;;;8.05;;
27847;SDS011;15212;48.830;8.730;2022-12-07T02:09:35;22.58;;;8.08;;
27847;SDS011;15212;48.830;8.730;2022-12-07T02:12:05;17.85;;;7.15;;
27847;SDS011;15212;48.830;8.730;2022-12-07T02:14:34;14.87;;;6.70;;
27847;SDS011;15212;48.830;8.730;2022-12-07T02:17:06;16.25;;;6.67;;
27847;SDS011;15212;48.830;8.730;2022-12-07T02:19:51;15.90;;;6.45;;
27847;SDS011;15212;48.830;8.730;2022-12-07T02:22:33;14.40;;;6.23;;
27847;SDS011;15212;48.830;8.730;2022-12-07T02:25:29;14.00;;;6.75;;
27847;SDS011;15212;48.830;8.730;2022-12-07T02:31:08;11.43;;;5.45;;
27847;SDS011;15212;48.830;8.730;2022-12-07T02:33:51;15.35;;;5.72;;
27847;SDS011;15212;48.830;8.730;2022-12-07T02:36:26;12.10;;;5.53;;
27847;SDS011;15212;48.830;8.730;2022-12-07T02:39:01;11.25;;;4.87;;
27847;SDS011;15212;48.830;8.730;2022-12-07T02:41:51;13.53;;;5.75;;
27847;SDS011;15212;48.830;8.730;2022-12-07T02:44:27;11.93;;;5.12;;
27847;SDS011;15212;48.830;8.730;2022-12-07T02:46:59;13.95;;;5.97;;
27847;SDS011;15212;48.830;8.730;2022-12-07T02:49:33;14.07;;;5.25;;
27847;SDS011;15212;48.830;8.730;2022-12-07T02:52:04;13.00;;;5.15;;
27847;SDS011;15212;48.830;8.730;2022-12-07T02:54:32;10.65;;;5.25;;
27847;SDS011;15212;48.830;8.730;2022-12-07T02:57:17;13.40;;;5.95;;
27847;SDS011;15212;48.830;8.730;2022-12-07T03:00:06;13.25;;;5.40;;
27847;SDS011;15212;48.830;8.730;2022-12-07T03:02:38;13.30;;;5.53;;
27847;SDS011;15212;48.830;8.730;2022-12-07T03:05:31;12.68;;;6.22;;
27847;SDS011;15212;48.830;8.730;2022-12-07T03:11:43;11.68;;;4.65;;
27847;SDS011;15212;48.830;8.730;2022-12-07T03:14:16;9.18;;;4.22;;
27847;SDS011;15212;48.830;8.730;2022-12-07T03:16:51;10.58;;;4.90;;
27847;SDS011;15212;48.830;8.730;2022-12-07T03:19:31;7.33;;;3.50;;
27847;SDS011;15212;48.830;8.730;2022-12-07T03:22:04;8.23;;;4.03;;
27847;SDS011;15212;48.830;8.730;2022-12-07T03:24:39;9.38;;;4.05;;
27847;SDS011;15212;48.830;8.730;2022-12-07T03:27:22;10.85;;;3.83;;
27847;SDS011;15212;48.830;8.730;2022-12-07T03:30:10;8.40;;;3.62;;
27847;SDS011;15212;48.830;8.730;2022-12-07T03:32:43;8.05;;;3.77;;
27847;SDS011;15212;48.830;8.730;2022-12-07T03:35:31;6.83;;;3.55;;
27847;SDS011;15212;48.830;8.730;2022-12-07T03:41:00;7.35;;;3.77;;
27847;SDS011;15212;48.830;8.730;2022-12-07T03:43:36;7.70;;;3.35;;
27847;SDS011;15212;48.830;8.730;2022-12-07T03:46:20;11.40;;;4.00;;
27847;SDS011;15212;48.830;8.730;2022-12-07T03:49:04;5.40;;;3.08;;
27847;SDS011;15212;48.830;8.730;2022-12-07T03:51:56;9.28;;;3.30;;
27847;SDS011;15212;48.830;8.730;2022-12-07T03:54:34;6.40;;;3.37;;
27847;SDS011;15212;48.830;8.730;2022-12-07T03:57:14;9.93;;;3.42;;
27847;SDS011;15212;48.830;8.730;2022-12-07T03:59:43;7.28;;;3.37;;
27847;SDS011;15212;48.830;8.730;2022-12-07T04:02:14;7.72;;;3.42;;
27847;SDS011;15212;48.830;8.730;2022-12-07T04:04:43;9.18;;;3.60;;
27847;SDS011;15212;48.830;8.730;2022-12-07T04:07:11;9.15;;;3.77;;
27847;SDS011;15212;48.830;8.730;2022-12-07T04:09:39;11.35;;;4.03;;
27847;SDS011;15212;48.830;8.730;2022-12-07T04:12:08;6.62;;;3.40;;
27847;SDS011;15212;48.830;8.730;2022-12-07T04:14:36;8.70;;;3.72;;
27847;SDS011;15212;48.830;8.730;2022-12-07T04:17:05;8.75;;;3.92;;
27847;SDS011;15212;48.830;8.730;2022-12-07T04:19:33;7.95;;;3.65;;
27847;SDS011;15212;48.830;8.730;2022-12-07T04:22:02;9.18;;;3.70;;
27847;SDS011;15212;48.830;8.730;2022-12-07T04:24:32;7.47;;;3.52;;
27847;SDS011;15212;48.830;8.730;2022-12-07T04:27:01;6.87;;;3.42;;
27847;SDS011;15212;48.830;8.730;2022-12-07T04:29:30;10.50;;;3.52;;
27847;SDS011;15212;48.830;8.730;2022-12-07T04:31:58;7.55;;;3.30;;
27847;SDS011;15212;48.830;8.730;2022-12-07T04:34:27;5.65;;;2.80;;
27847;SDS011;15212;48.830;8.730;2022-12-07T04:36:55;6.33;;;3.00;;
27847;SDS011;15212;48.830;8.730;2022-12-07T04:39:27;5.45;;;3.17;;
27847;SDS011;15212;48.830;8.730;2022-12-07T04:41:58;5.60;;;3.12;;
27847;SDS011;15212;48.830;8.730;2022-12-07T04:44:28;6.08;;;2.83;;
27847;SDS011;15212;48.830;8.730;2022-12-07T04:46:57;7.58;;;2.77;;
27847;SDS011;15212;48.830;8.730;2022-12-07T04:49:25;5.92;;;3.00;;
27847;SDS011;15212;48.830;8.730;2022-12-07T04:51:54;5.95;;;2.77;;
27847;SDS011;15212;48.830;8.730;2022-12-07T04:54:22;6.42;;;3.02;;
27847;SDS011;15212;48.830;8.730;2022-12-07T04:56:51;6.95;;;2.65;;
27847;SDS011;15212;48.830;8.730;2022-12-07T04:59:19;6.05;;;2.90;;
27847;SDS011;15212;48.830;8.730;2022-12-07T05:01:47;5.85;;;2.75;;
27847;SDS011;15212;48.830;8.730;2022-12-07T05:04:16;7.05;;;3.15;;
27847;SDS011;15212;48.830;8.730;2022-12-07T05:06:44;5.33;;;3.10;;
27847;SDS011;15212;48.830;8.730;2022-12-07T05:09:13;8.73;;;3.00;;
27847;SDS011;15212;48.830;8.730;2022-12-07T05:11:41;6.05;;;3.15;;
27847;SDS011;15212;48.830;8.730;2022-12-07T05:14:14;12.95;;;5.37;;
27847;SDS011;15212;48.830;8.730;2022-12-07T05:16:48;8.08;;;3.17;;
27847;SDS011;15212;48.830;8.730;2022-12-07T05:19:19;8.63;;;3.55;;
27847;SDS011;15212;48.830;8.730;2022-12-07T05:21:47;8.20;;;3.50;;
27847;SDS011;15212;48.830;8.730;2022-12-07T05:24:16;6.78;;;3.33;;
27847;SDS011;15212;48.830;8.730;2022-12-07T05:26:45;7.72;;;3.65;;
27847;SDS011;15212;48.830;8.730;2022-12-07T05:29:14;9.88;;;4.05;;
27847;SDS011;15212;48.830;8.730;2022-12-07T05:31:44;7.10;;;3.75;;
27847;SDS011;15212;48.830;8.730;2022-12-07T05:34:13;9.03;;;3.85;;
27847;SDS011;15212;48.830;8.730;2022-12-07T05:36:42;8.75;;;3.98;;
27847;SDS011;15212;48.830;8.730;2022-12-07T05:39:10;8.78;;;4.10;;
27847;SDS011;15212;48.830;8.730;2022-12-07T05:41:38;7.25;;;3.60;;
27847;SDS011;15212;48.830;8.730;2022-12-07T05:44:24;9.53;;;3.55;;
27847;SDS011;15212;48.830;8.730;2022-12-07T05:46:53;9.68;;;4.67;;
27847;SDS011;15212;48.830;8.730;2022-12-07T05:49:21;10.05;;;4.28;;
27847;SDS011;15212;48.830;8.730;2022-12-07T05:51:50;10.95;;;4.85;;
27847;SDS011;15212;48.830;8.730;2022-12-07T05:54:18;10.75;;;3.70;;
27847;SDS011;15212;48.830;8.730;2022-12-07T05:56:47;7.55;;;3.50;;
27847;SDS011;15212;48.830;8.730;2022-12-07T05:59:15;6.53;;;3.65;;
27847;SDS011;15212;48.830;8.730;2022-12-07T06:02:01;8.18;;;3.70;;
27847;SDS011;15212;48.830;8.730;2022-12-07T06:04:33;6.65;;;3.30;;
27847;SDS011;15212;48.830;8.730;2022-12-07T06:07:04;5.97;;;3.27;;
27847;SDS011;15212;48.830;8.730;2022-12-07T06:09:33;7.20;;;3.17;;
27847;SDS011;15212;48.830;8.730;2022-12-07T06:12:03;8.25;;;3.25;;
27847;SDS011;15212;48.830;8.730;2022-12-07T06:14:50;7.92;;;3.27;;
27847;SDS011;15212;48.830;8.730;2022-12-07T06:17:18;5.37;;;3.05;;
27847;SDS011;15212;48.830;8.730;2022-12-07T06:19:47;6.42;;;3.55;;
27847;SDS011;15212;48.830;8.730;2022-12-07T06:22:15;7.05;;;2.95;;
27847;SDS011;15212;48.830;8.730;2022-12-07T06:24:44;4.85;;;2.60;;
27847;SDS011;15212;48.830;8.730;2022-12-07T06:27:12;5.03;;;2.42;;
27847;SDS011;15212;48.830;8.730;2022-12-07T06:29:41;5.15;;;2.83;;
27847;SDS011;15212;48.830;8.730;2022-12-07T06:32:09;5.58;;;2.85;;
27847;SDS011;15212;48.830;8.730;2022-12-07T06:34:38;4.78;;;2.75;;
27847;SDS011;15212;48.830;8.730;2022-12-07T06:37:06;4.55;;;2.52;;
27847;SDS011;15212;48.830;8.730;2022-12-07T06:39:35;7.95;;;3.42;;
27847;SDS011;15212;48.830;8.730;2022-12-07T06:42:04;5.87;;;2.85;;
27847;SDS011;15212;48.830;8.730;2022-12-07T06:44:33;5.33;;;2.50;;
27847;SDS011;15212;48.830;8.730;2022-12-07T06:47:01;5.03;;;2.60;;
27847;SDS011;15212;48.830;8.730;2022-12-07T06:49:30;5.40;;;2.95;;
27847;SDS011;15212;48.830;8.730;2022-12-07T06:51:59;5.08;;;2.60;;
27847;SDS011;15212;48.830;8.730;2022-12-07T06:54:27;9.13;;;3.92;;
27847;SDS011;15212;48.830;8.730;2022-12-07T06:56:56;6.80;;;2.80;;
27847;SDS011;15212;48.830;8.730;2022-12-07T06:59:24;6.92;;;3.40;;
27847;SDS011;15212;48.830;8.730;2022-12-07T07:01:53;9.05;;;4.47;;
27847;SDS011;15212;48.830;8.730;2022-12-07T07:04:21;13.40;;;6.72;;
27847;SDS011;15212;48.830;8.730;2022-12-07T07:06:50;16.12;;;7.08;;
27847;SDS011;15212;48.830;8.730;2022-12-07T07:09:19;10.50;;;5.67;;
27847;SDS011;15212;48.830;8.730;2022-12-07T07:11:47;11.53;;;4.55;;
27847;SDS011;15212;48.830;8.730;2022-12-07T07:14:15;6.20;;;3.17;;
27847;SDS011;15212;48.830;8.730;2022-12-07T07:16:45;6.92;;;2.90;;
27847;SDS011;15212;48.830;8.730;2022-12-07T07:19:13;6.62;;;2.77;;
27847;SDS011;15212;48.830;8.730;2022-12-07T07:21:42;5.50;;;2.55;;
27847;SDS011;15212;48.830;8.730;2022-12-07T07:24:10;5.45;;;2.92;;
27847;SDS011;15212;48.830;8.730;2022-12-07T07:26:38;4.45;;;2.72;;
27847;SDS011;15212;48.830;8.730;2022-12-07T07:29:07;6.00;;;3.02;;
27847;SDS011;15212;48.830;8.730;2022-12-07T07:31:35;5.67;;;2.87;;
27847;SDS011;15212;48.830;8.730;2022-12-07T07:34:03;6.62;;;3.05;;
27847;SDS011;15212;48.830;8.730;2022-12-07T07:36:32;6.92;;;2.83;;
27847;SDS011;15212;48.830;8.730;2022-12-07T07:39:00;6.30;;;2.45;;
27847;SDS011;15212;48.830;8.730;2022-12-07T07:41:29;5.20;;;2.52;;
27847;SDS011;15212;48.830;8.730;2022-12-07T07:43:57;4.55;;;2.55;;
27847;SDS011;15212;48.830;8.730;2022-12-07T07:46:26;5.75;;;3.20;;
27847;SDS011;15212;48.830;8.730;2022-12-07T07:48:54;4.72;;;2.58;;
27847;SDS011;15212;48.830;8.730;2022-12-07T07:51:22;6.28;;;2.30;;
27847;SDS011;15212;48.830;8.730;2022-12-07T07:56:39;5.53;;;2.50;;
27847;SDS011;15212;48.830;8.730;2022-12-07T07:59:07;6.30;;;2.52;;
27847;SDS011;15212;48.830;8.730;2022-12-07T08:01:35;4.83;;;2.70;;
27847;SDS011;15212;48.830;8.730;2022-12-07T08:04:04;5.40;;;2.45;;
27847;SDS011;15212;48.830;8.730;2022-12-07T08:06:32;4.95;;;2.45;;
27847;SDS011;15212;48.830;8.730;2022-12-07T08:09:00;4.80;;;2.10;;
27847;SDS011;15212;48.830;8.730;2022-12-07T08:11:31;10.45;;;2.60;;
27847;SDS011;15212;48.830;8.730;2022-12-07T08:14:00;4.62;;;2.52;;
27847;SDS011;15212;48.830;8.730;2022-12-07T08:16:28;6.25;;;2.70;;
27847;SDS011;15212;48.830;8.730;2022-12-07T08:18:57;6.12;;;2.55;;
27847;SDS011;15212;48.830;8.730;2022-12-07T08:21:25;3.60;;;2.00;;
27847;SDS011;15212;48.830;8.730;2022-12-07T08:23:54;7.22;;;2.25;;
27847;SDS011;15212;48.830;8.730;2022-12-07T08:26:23;5.40;;;2.37;;
27847;SDS011;15212;48.830;8.730;2022-12-07T08:28:52;4.83;;;2.47;;
27847;SDS011;15212;48.830;8.730;2022-12-07T08:31:21;4.62;;;2.52;;
27847;SDS011;15212;48.830;8.730;2022-12-07T08:33:49;3.95;;;2.22;;
27847;SDS011;15212;48.830;8.730;2022-12-07T08:36:17;5.62;;;2.87;;
27847;SDS011;15212;48.830;8.730;2022-12-07T08:38:47;3.62;;;2.22;;
27847;SDS011;15212;48.830;8.730;2022-12-07T08:41:16;7.40;;;3.10;;
27847;SDS011;15212;48.830;8.730;2022-12-07T08:43:44;5.95;;;2.98;;
27847;SDS011;15212;48.830;8.730;2022-12-07T08:46:16;6.55;;;2.75;;
27847;SDS011;15212;48.830;8.730;2022-12-07T08:48:58;4.78;;;2.67;;
27847;SDS011;15212;48.830;8.730;2022-12-07T08:51:39;5.05;;;2.65;;
27847;SDS011;15212;48.830;8.730;2022-12-07T08:54:10;5.60;;;2.60;;
27847;SDS011;15212;48.830;8.730;2022-12-07T08:56:41;4.72;;;2.52;;
27847;SDS011;15212;48.830;8.730;2022-12-07T08:59:12;4.60;;;2.52;;
27847;SDS011;15212;48.830;8.730;2022-12-07T09:01:42;4.50;;;2.27;;
27847;SDS011;15212;48.830;8.730;2022-12-07T09:04:11;8.33;;;2.75;;
27847;SDS011;15212;48.830;8.730;2022-12-07T09:06:40;5.25;;;2.60;;
27847;SDS011;15212;48.830;8.730;2022-12-07T09:09:09;6.10;;;3.15;;
27847;SDS011;15212;48.830;8.730;2022-12-07T09:11:39;5.25;;;2.52;;
27847;SDS011;15212;48.830;8.730;2022-12-07T09:14:08;4.60;;;2.72;;
27847;SDS011;15212;48.830;8.730;2022-12-07T09:16:36;6.72;;;2.92;;
27847;SDS011;15212;48.830;8.730;2022-12-07T09:19:05;5.53;;;2.80;;
27847;SDS011;15212;48.830;8.730;2022-12-07T09:21:35;4.12;;;2.30;;
27847;SDS011;15212;48.830;8.730;2022-12-07T09:24:03;5.80;;;2.70;;
27847;SDS011;15212;48.830;8.730;2022-12-07T09:26:32;4.92;;;2.37;;
27847;SDS011;15212;48.830;8.730;2022-12-07T09:29:02;5.47;;;2.37;;
27847;SDS011;15212;48.830;8.730;2022-12-07T09:31:30;5.55;;;2.50;;
27847;SDS011;15212;48.830;8.730;2022-12-07T09:33:59;5.17;;;2.67;;
27847;SDS011;15212;48.830;8.730;2022-12-07T09:36:28;4.20;;;2.25;;
27847;SDS011;15212;48.830;8.730;2022-12-07T09:38:57;4.83;;;2.45;;
27847;SDS011;15212;48.830;8.730;2022-12-07T09:41:26;7.35;;;2.72;;
27847;SDS011;15212;48.830;8.730;2022-12-07T09:44:09;7.28;;;3.10;;
27847;SDS011;15212;48.830;8.730;2022-12-07T09:46:36;5.80;;;2.85;;
27847;SDS011;15212;48.830;8.730;2022-12-07T09:49:16;7.05;;;2.50;;
27847;SDS011;15212;48.830;8.730;2022-12-07T09:51:43;6.40;;;2.77;;
27847;SDS011;15212;48.830;8.730;2022-12-07T09:54:13;5.95;;;2.90;;
27847;SDS011;15212;48.830;8.730;2022-12-07T09:56:43;5.03;;;2.40;;
27847;SDS011;15212;48.830;8.730;2022-12-07T09:59:22;4.65;;;2.35;;
27847;SDS011;15212;48.830;8.730;2022-12-07T10:01:47;3.33;;;1.67;;
27847;SDS011;15212;48.830;8.730;2022-12-07T10:04:20;7.03;;;1.95;;
27847;SDS011;15212;48.830;8.730;2022-12-07T10:06:51;4.63;;;2.37;;
27847;SDS011;15212;48.830;8.730;2022-12-07T10:09:20;4.15;;;1.92;;
27847;SDS011;15212;48.830;8.730;2022-12-07T10:12:00;3.55;;;2.20;;
27847;SDS011;15212;48.830;8.730;2022-12-07T10:14:33;5.75;;;1.98;;
27847;SDS011;15212;48.830;8.730;2022-12-07T10:20:12;4.95;;;2.08;;
27847;SDS011;15212;48.830;8.730;2022-12-07T10:22:56;5.37;;;2.27;;
27847;SDS011;15212;48.830;8.730;2022-12-07T10:25:35;4.65;;;2.27;;
27847;SDS011;15212;48.830;8.730;2022-12-07T10:30:47;8.33;;;3.50;;
27847;SDS011;15212;48.830;8.730;2022-12-07T10:33:37;3.70;;;2.00;;
27847;SDS011;15212;48.830;8.730;2022-12-07T10:36:18;4.20;;;2.47;;
27847;SDS011;15212;48.830;8.730;2022-12-07T10:39:16;4.20;;;2.27;;
27847;SDS011;15212;48.830;8.730;2022-12-07T10:42:00;5.22;;;2.77;;
27847;SDS011;15212;48.830;8.730;2022-12-07T10:44:33;4.17;;;2.50;;
27847;SDS011;15212;48.830;8.730;2022-12-07T10:47:17;6.20;;;2.85;;
27847;SDS011;15212;48.830;8.730;2022-12-07T10:50:14;6.15;;;2.67;;
27847;SDS011;15212;48.830;8.730;2022-12-07T10:53:24;4.43;;;2.57;;
27847;SDS011;15212;48.830;8.730;2022-12-07T10:56:10;7.83;;;3.27;;
27847;SDS011;15212;48.830;8.730;2022-12-07T11:05:06;4.08;;;2.92;;
27847;SDS011;15212;48.830;8.730;2022-12-07T11:11:04;6.25;;;3.00;;
27847;SDS011;15212;48.830;8.730;2022-12-07T11:13:45;5.75;;;2.92;;
27847;SDS011;15212;48.830;8.730;2022-12-07T11:16:55;6.57;;;3.43;;
27847;SDS011;15212;48.830;8.730;2022-12-07T11:26:08;6.00;;;3.20;;
27847;SDS011;15212;48.830;8.730;2022-12-07T11:32:49;6.37;;;3.30;;
27847;SDS011;15212;48.830;8.730;2022-12-07T11:38:33;7.75;;;3.70;;
27847;SDS011;15212;48.830;8.730;2022-12-07T11:41:13;9.75;;;3.85;;
27847;SDS011;15212;48.830;8.730;2022-12-07T11:46:43;8.15;;;4.10;;
27847;SDS011;15212;48.830;8.730;2022-12-07T11:52:17;9.68;;;3.98;;
27847;SDS011;15212;48.830;8.730;2022-12-07T11:54:47;12.78;;;5.00;;
27847;SDS011;15212;48.830;8.730;2022-12-07T11:57:36;11.15;;;4.60;;
27847;SDS011;15212;48.830;8.730;2022-12-07T12:00:12;9.68;;;4.22;;
27847;SDS011;15212;48.830;8.730;2022-12-07T12:02:47;9.05;;;4.33;;
27847;SDS011;15212;48.830;8.730;2022-12-07T12:07:55;10.25;;;3.85;;
27847;SDS011;15212;48.830;8.730;2022-12-07T12:11:00;9.73;;;3.95;;
27847;SDS011;15212;48.830;8.730;2022-12-07T12:22:47;9.80;;;4.45;;
27847;SDS011;15212;48.830;8.730;2022-12-07T12:25:42;10.63;;;4.30;;
27847;SDS011;15212;48.830;8.730;2022-12-07T12:31:08;12.43;;;4.30;;
27847;SDS011;15212;48.830;8.730;2022-12-07T12:33:52;11.93;;;4.90;;
27847;SDS011;15212;48.830;8.730;2022-12-07T12:39:14;13.00;;;5.35;;
27847;SDS011;15212;48.830;8.730;2022-12-07T12:46:59;9.18;;;4.87;;
27847;SDS011;15212;48.830;8.730;2022-12-07T12:49:44;24.27;;;9.05;;
27847;SDS011;15212;48.830;8.730;2022-12-07T12:57:39;12.10;;;4.75;;
27847;SDS011;15212;48.830;8.730;2022-12-07T13:00:17;9.43;;;4.40;;
27847;SDS011;15212;48.830;8.730;2022-12-07T13:02:51;9.08;;;4.15;;
27847;SDS011;15212;48.830;8.730;2022-12-07T13:05:26;10.55;;;4.65;;
27847;SDS011;15212;48.830;8.730;2022-12-07T13:07:54;8.48;;;4.30;;
27847;SDS011;15212;48.830;8.730;2022-12-07T13:10:33;14.38;;;5.10;;
27847;SDS011;15212;48.830;8.730;2022-12-07T13:18:25;9.28;;;4.53;;
27847;SDS011;15212;48.830;8.730;2022-12-07T13:26:37;14.47;;;5.75;;
27847;SDS011;15212;48.830;8.730;2022-12-07T13:31:56;9.90;;;4.97;;
27847;SDS011;15212;48.830;8.730;2022-12-07T13:40:00;14.53;;;5.15;;
27847;SDS011;15212;48.830;8.730;2022-12-07T13:42:28;20.17;;;8.10;;
27847;SDS011;15212;48.830;8.730;2022-12-07T13:44:59;11.12;;;5.15;;
27847;SDS011;15212;48.830;8.730;2022-12-07T13:47:54;12.78;;;4.95;;
27847;SDS011;15212;48.830;8.730;2022-12-07T13:50:26;15.80;;;7.78;;
27847;SDS011;15212;48.830;8.730;2022-12-07T13:52:57;11.28;;;4.87;;
27847;SDS011;15212;48.830;8.730;2022-12-07T13:55:28;12.13;;;6.10;;
27847;SDS011;15212;48.830;8.730;2022-12-07T13:57:57;12.30;;;5.83;;
27847;SDS011;15212;48.830;8.730;2022-12-07T14:00:27;15.75;;;5.90;;
27847;SDS011;15212;48.830;8.730;2022-12-07T14:02:58;13.40;;;5.72;;
27847;SDS011;15212;48.830;8.730;2022-12-07T14:05:30;35.45;;;14.33;;
27847;SDS011;15212;48.830;8.730;2022-12-07T14:13:26;14.40;;;5.70;;
27847;SDS011;15212;48.830;8.730;2022-12-07T14:16:54;12.55;;;5.83;;
27847;SDS011;15212;48.830;8.730;2022-12-07T14:18:46;14.87;;;5.87;;
27847;SDS011;15212;48.830;8.730;2022-12-07T14:21:15;16.80;;;7.28;;
27847;SDS011;15212;48.830;8.730;2022-12-07T14:24:02;15.85;;;6.75;;
27847;SDS011;15212;48.830;8.730;2022-12-07T14:26:39;13.40;;;6.00;;
27847;SDS011;15212;48.830;8.730;2022-12-07T14:32:11;16.15;;;6.37;;
27847;SDS011;15212;48.830;8.730;2022-12-07T14:35:00;18.07;;;6.17;;
27847;SDS011;15212;48.830;8.730;2022-12-07T14:37:39;14.63;;;6.03;;
27847;SDS011;15212;48.830;8.730;2022-12-07T14:40:18;13.55;;;5.67;;
27847;SDS011;15212;48.830;8.730;2022-12-07T14:42:53;15.68;;;6.42;;
27847;SDS011;15212;48.830;8.730;2022-12-07T14:45:24;13.00;;;5.20;;
27847;SDS011;15212;48.830;8.730;2022-12-07T14:47:52;15.48;;;5.55;;
27847;SDS011;15212;48.830;8.730;2022-12-07T14:50:21;18.48;;;6.72;;
27847;SDS011;15212;48.830;8.730;2022-12-07T14:52:51;17.60;;;6.78;;
27847;SDS011;15212;48.830;8.730;2022-12-07T14:55:26;14.95;;;6.35;;
27847;SDS011;15212;48.830;8.730;2022-12-07T14:57:57;17.73;;;7.57;;
27847;SDS011;15212;48.830;8.730;2022-12-07T15:00:26;15.65;;;6.28;;
27847;SDS011;15212;48.830;8.730;2022-12-07T15:02:56;16.95;;;7.03;;
27847;SDS011;15212;48.830;8.730;2022-12-07T15:05:25;14.23;;;5.95;;
27847;SDS011;15212;48.830;8.730;2022-12-07T15:07:53;19.32;;;6.78;;
27847;SDS011;15212;48.830;8.730;2022-12-07T15:10:23;13.08;;;5.03;;
27847;SDS011;15212;48.830;8.730;2022-12-07T15:13:02;18.12;;;7.17;;
27847;SDS011;15212;48.830;8.730;2022-12-07T15:15:47;13.70;;;6.45;;
27847;SDS011;15212;48.830;8.730;2022-12-07T15:18:18;14.60;;;6.30;;
27847;SDS011;15212;48.830;8.730;2022-12-07T15:20:48;17.62;;;7.15;;
27847;SDS011;15212;48.830;8.730;2022-12-07T15:23:17;14.95;;;6.58;;
27847;SDS011;15212;48.830;8.730;2022-12-07T15:25:46;16.82;;;6.35;;
27847;SDS011;15212;48.830;8.730;2022-12-07T15:28:16;14.38;;;6.15;;
27847;SDS011;15212;48.830;8.730;2022-12-07T15:30:44;17.02;;;6.75;;
27847;SDS011;15212;48.830;8.730;2022-12-07T15:33:13;16.07;;;7.10;;
27847;SDS011;15212;48.830;8.730;2022-12-07T15:35:42;17.05;;;6.20;;
27847;SDS011;15212;48.830;8.730;2022-12-07T15:38:11;16.62;;;6.30;;
27847;SDS011;15212;48.830;8.730;2022-12-07T15:40:40;18.12;;;6.90;;
27847;SDS011;15212;48.830;8.730;2022-12-07T15:43:09;18.02;;;6.87;;
27847;SDS011;15212;48.830;8.730;2022-12-07T15:45:57;17.23;;;7.20;;
27847;SDS011;15212;48.830;8.730;2022-12-07T15:48:25;17.07;;;6.83;;
27847;SDS011;15212;48.830;8.730;2022-12-07T15:51:00;17.67;;;7.15;;
27847;SDS011;15212;48.830;8.730;2022-12-07T15:53:33;22.30;;;8.35;;
27847;SDS011;15212;48.830;8.730;2022-12-07T15:56:05;18.82;;;8.18;;
27847;SDS011;15212;48.830;8.730;2022-12-07T15:58:35;31.23;;;11.15;;
27847;SDS011;15212;48.830;8.730;2022-12-07T16:01:15;24.40;;;8.95;;
27847;SDS011;15212;48.830;8.730;2022-12-07T16:03:43;26.97;;;9.08;;
27847;SDS011;15212;48.830;8.730;2022-12-07T16:06:12;21.50;;;8.75;;
27847;SDS011;15212;48.830;8.730;2022-12-07T16:08:45;17.87;;;6.90;;
27847;SDS011;15212;48.830;8.730;2022-12-07T16:11:14;18.30;;;7.90;;
27847;SDS011;15212;48.830;8.730;2022-12-07T16:13:42;18.27;;;7.62;;
27847;SDS011;15212;48.830;8.730;2022-12-07T16:16:12;21.30;;;8.25;;
27847;SDS011;15212;48.830;8.730;2022-12-07T16:18:43;29.48;;;10.18;;
27847;SDS011;15212;48.830;8.730;2022-12-07T16:21:13;23.90;;;9.78;;
27847;SDS011;15212;48.830;8.730;2022-12-07T16:23:42;27.15;;;11.05;;
27847;SDS011;15212;48.830;8.730;2022-12-07T16:26:15;17.12;;;7.90;;
27847;SDS011;15212;48.830;8.730;2022-12-07T16:28:48;29.20;;;12.18;;
27847;SDS011;15212;48.830;8.730;2022-12-07T16:31:18;27.70;;;11.53;;
27847;SDS011;15212;48.830;8.730;2022-12-07T16:33:49;21.00;;;9.05;;
27847;SDS011;15212;48.830;8.730;2022-12-07T16:36:21;17.55;;;7.62;;
27847;SDS011;15212;48.830;8.730;2022-12-07T16:38:51;23.05;;;9.15;;
27847;SDS011;15212;48.830;8.730;2022-12-07T16:41:20;18.77;;;8.40;;
27847;SDS011;15212;48.830;8.730;2022-12-07T16:43:49;21.15;;;9.50;;
27847;SDS011;15212;48.830;8.730;2022-12-07T16:46:17;19.50;;;8.33;;
27847;SDS011;15212;48.830;8.730;2022-12-07T16:48:46;32.55;;;13.18;;
27847;SDS011;15212;48.830;8.730;2022-12-07T16:51:15;19.48;;;10.00;;
27847;SDS011;15212;48.830;8.730;2022-12-07T16:53:43;19.70;;;8.95;;
27847;SDS011;15212;48.830;8.730;2022-12-07T16:56:13;20.32;;;8.88;;
27847;SDS011;15212;48.830;8.730;2022-12-07T16:58:44;23.25;;;10.85;;